Time;durP1;ratioP1;P1;durP2;ratioP2;P2;SDS_P1;SDS_P2;PMS_P1;PMS_P2;Temp;Humidity;BMP_temperature;BMP_pressure;BME280_temperature;BME280_humidity;BME280_pressure;Samples;Min_cycle;Max_cycle;Signal;HPM_P1;HPM_P2
2022/09/02 00:00:43;;;;;;;;;;;;;;;17.96;55.96;99909.59;1085165;46;19947;-78
2022/09/02 00:01:48;;;;;;;;;;;;;;;17.98;56.18;99912.97;1084607;46;19938;-78
2022/09/02 00:02:49;;;;;;;;;;;;;;;18.00;55.70;99908.22;1084692;54;19946;-78
2022/09/02 00:03:54;;;;;;;;;;;;;;;18.03;55.97;99913.25;1085609;31;20467;-80
2022/09/02 00:04:55;;;;;;;;;;;;;;;18.05;55.53;99903.88;1084019;54;19970;-79
2022/09/02 00:05:59;;;;;;;;;;;;;;;18.07;55.80;99903.69;1083906;54;19957;-79
2022/09/02 00:07:00;;;;;;;;;;;;;;;18.10;55.43;99908.69;1085095;39;20759;-80
2022/09/02 00:08:04;;;;;;;;;;;;;;;18.11;55.73;99909.53;1084158;54;20089;-80
2022/09/02 00:09:06;;;;;;;;;;;;;;;18.13;55.57;99902.06;1084164;54;19950;-80
2022/09/02 00:10:11;;;;;;;;;;;;;;;18.11;55.44;99907.69;1084256;54;19954;-81
2022/09/02 00:11:16;;;;;;;;;;;;;;;18.11;55.72;99906.81;1083946;54;19947;-79
2022/09/02 00:12:19;;;;;;;;;;;;;;;18.11;55.36;99902.25;1084311;54;19947;-79
2022/09/02 00:13:21;;;;;;;;;;;;;;;18.09;55.60;99897.03;1084099;54;19946;-78
2022/09/02 00:14:27;;;;;;;;;;;;;;;18.12;55.43;99905.78;1084004;54;20424;-79
2022/09/02 00:15:28;;;;;;;;;;;;;;;18.09;55.63;99907.03;1084423;54;19946;-76
2022/09/02 00:16:33;;;;;;;;;;;;;;;18.06;55.45;99904.72;1084468;54;19967;-77
2022/09/02 00:17:34;;;;;;;;;;;;;;;18.07;55.21;99900.97;1084102;54;20441;-79
2022/09/02 00:18:38;;;;;;;;;;;;;;;18.08;55.57;99899.94;1084158;54;19947;-79
2022/09/02 00:19:39;;;;;;;;;;;;;;;18.05;55.32;99897.63;1084598;54;20670;-79
2022/09/02 00:20:44;;;;;;;;;;;;;;;18.03;55.03;99903.25;1084821;54;19969;-80
2022/09/02 00:21:45;;;;;;;;;;;;;;;17.95;56.00;99900.66;1084564;54;19946;-81
2022/09/02 00:22:49;;;;;;;;;;;;;;;17.92;55.90;99901.03;1084331;54;19947;-79
2022/09/02 00:23:50;;;;;;;;;;;;;;;17.83;55.85;99900.38;1084820;54;19973;-78
2022/09/02 00:24:54;;;;;;;;;;;;;;;17.75;56.08;99905.91;1085793;54;19951;-81
2022/09/02 00:25:55;;;;;;;;;;;;;;;17.78;56.00;99900.97;1085863;54;19970;-79
2022/09/02 00:27:02;;;;;;;;;;;;;;;17.80;55.93;99892.63;1085376;54;19946;-80
2022/09/02 00:28:03;;;;;;;;;;;;;;;17.82;55.98;99896.00;1088166;39;20387;-79
2022/09/02 00:29:08;;;;;;;;;;;;;;;17.80;55.99;99895.34;1085937;47;19947;-79
2022/09/02 00:30:12;;;;;;;;;;;;;;;17.78;56.03;99895.56;1084942;54;19946;-79
2022/09/02 00:31:16;;;;;;;;;;;;;;;17.72;56.20;99896.31;1086447;47;19946;-80
2022/09/02 00:32:17;;;;;;;;;;;;;;;17.72;56.28;99892.78;1086166;54;19954;-79
2022/09/02 00:33:21;;;;;;;;;;;;;;;17.74;56.04;99888.84;1086513;54;20002;-80
2022/09/02 00:34:22;;;;;;;;;;;;;;;17.69;56.33;99893.16;1086945;54;19950;-80
2022/09/02 00:35:26;;;;;;;;;;;;;;;17.67;56.71;99884.41;1086590;54;19945;-80
2022/09/02 00:36:27;;;;;;;;;;;;;;;17.66;56.36;99893.56;1086319;46;19953;-79
2022/09/02 00:37:31;;;;;;;;;;;;;;;17.62;56.62;99888.56;1085795;54;19950;-80
2022/09/02 00:38:33;;;;;;;;;;;;;;;17.64;56.19;99899.16;1084738;54;19954;-81
2022/09/02 00:39:36;;;;;;;;;;;;;;;17.63;56.43;99897.47;1084774;54;20428;-79
2022/09/02 00:40:42;;;;;;;;;;;;;;;17.63;56.54;99897.47;1084558;54;19958;-79
2022/09/02 00:41:46;;;;;;;;;;;;;;;17.67;56.51;99887.13;1084732;54;19947;-80
2022/09/02 00:42:50;;;;;;;;;;;;;;;17.66;56.46;99893.56;1084760;54;19969;-80
2022/09/02 00:43:55;;;;;;;;;;;;;;;17.66;56.30;99890.88;1084650;54;19950;-80
2022/09/02 00:44:56;;;;;;;;;;;;;;;17.62;56.07;99880.44;1084388;54;19954;-79
2022/09/02 00:46:00;;;;;;;;;;;;;;;17.61;56.07;99878.78;1084460;54;19946;-80
2022/09/02 00:47:03;;;;;;;;;;;;;;;17.62;56.49;99883.16;1084380;54;19951;-80
2022/09/02 00:48:05;;;;;;;;;;;;;;;17.62;55.96;99879.59;1084599;54;20500;-79
2022/09/02 00:49:10;;;;;;;;;;;;;;;17.62;55.96;99885.00;1084668;39;20694;-80
2022/09/02 00:50:13;;;;;;;;;;;;;;;17.65;55.92;99876.50;1084147;54;19947;-80
2022/09/02 00:51:18;;;;;;;;;;;;;;;17.68;55.93;99880.69;1085108;46;19939;-78
2022/09/02 00:52:24;;;;;;;;;;;;;;;17.70;56.05;99878.63;1084401;54;19951;-80
2022/09/02 00:53:25;;;;;;;;;;;;;;;17.71;55.91;99872.19;1084357;54;19986;-81
2022/09/02 00:54:31;;;;;;;;;;;;;;;17.71;56.04;99873.00;1083961;54;19947;-80
2022/09/02 00:55:35;;;;;;;;;;;;;;;17.73;55.96;99879.06;1084788;39;20344;-80
2022/09/02 00:56:40;;;;;;;;;;;;;;;17.73;55.67;99876.34;1084338;54;19973;-80
2022/09/02 00:57:43;;;;;;;;;;;;;;;17.71;56.08;99880.28;1085155;39;20126;-79
2022/09/02 00:58:50;;;;;;;;;;;;;;;17.73;55.67;99870.13;1084100;54;20015;-78
2022/09/02 00:59:55;;;;;;;;;;;;;;;17.72;55.76;99873.88;1084321;54;19947;-80
2022/09/02 01:01:00;;;;;;;;;;;;;;;17.69;55.91;99882.34;1084357;54;19951;-80
2022/09/02 01:02:02;;;;;;;;;;;;;;;17.69;55.86;99879.66;1084429;54;19970;-79
2022/09/02 01:03:07;;;;;;;;;;;;;;;17.69;55.93;99885.06;1084130;54;19957;-79
2022/09/02 01:04:08;;;;;;;;;;;;;;;17.70;55.75;99878.63;1084300;54;19974;-79
2022/09/02 01:05:14;;;;;;;;;;;;;;;17.68;55.83;99872.56;1084441;54;19951;-79
2022/09/02 01:06:18;;;;;;;;;;;;;;;17.68;55.76;99875.28;1084473;54;19946;-80
2022/09/02 01:07:22;;;;;;;;;;;;;;;17.69;55.50;99882.34;1084421;54;19954;-79
2022/09/02 01:08:25;;;;;;;;;;;;;;;17.67;55.83;99877.16;1084564;54;19950;-81
2022/09/02 01:09:30;;;;;;;;;;;;;;;17.68;55.92;99880.69;1084884;39;20335;-79
2022/09/02 01:10:33;;;;;;;;;;;;;;;17.66;55.79;99880.88;1084581;54;20437;-80
2022/09/02 01:11:41;;;;;;;;;;;;;;;17.66;55.70;99874.66;1084625;54;19970;-80
2022/09/02 01:12:42;;;;;;;;;;;;;;;17.66;55.94;99877.34;1084549;54;19951;-80
2022/09/02 01:13:46;;;;;;;;;;;;;;;17.68;55.88;99875.28;1084149;54;19969;-80
2022/09/02 01:14:50;;;;;;;;;;;;;;;17.68;55.71;99877.97;1084048;54;19946;-80
2022/09/02 01:15:57;;;;;;;;;;;;;;;17.68;55.59;99878.84;1084521;54;19951;-80
2022/09/02 01:17:00;;;;;;;;;;;;;;;17.67;55.79;99876.31;1084163;54;19947;-79
2022/09/02 01:18:04;;;;;;;;;;;;;;;17.66;56.10;99880.06;1084172;54;19950;-78
2022/09/02 01:19:09;;;;;;;;;;;;;;;17.64;55.94;99887.53;1084170;54;19947;-79
2022/09/02 01:20:15;;;;;;;;;;;;;;;17.60;56.34;99871.69;1083854;54;19950;-79
2022/09/02 01:21:17;;;;;;;;;;;;;;;17.49;56.20;99885.72;1084124;54;20433;-79
2022/09/02 01:22:25;;;;;;;;;;;;;;;17.45;56.57;99887.16;1083960;54;20507;-80
2022/09/02 01:23:27;;;;;;;;;;;;;;;17.45;56.62;99890.69;1084209;54;19946;-80
2022/09/02 01:24:33;;;;;;;;;;;;;;;17.47;56.52;99877.00;1084140;54;19951;-78
2022/09/02 01:25:35;;;;;;;;;;;;;;;17.49;56.58;99884.91;1084477;54;19970;-79
2022/09/02 01:26:38;;;;;;;;;;;;;;;17.50;56.45;99879.28;1084274;54;19946;-79
2022/09/02 01:27:40;;;;;;;;;;;;;;;17.50;56.40;99882.00;1084267;54;20030;-79
2022/09/02 01:28:43;;;;;;;;;;;;;;;17.50;56.40;99878.47;1084649;39;20302;-79
2022/09/02 01:29:45;;;;;;;;;;;;;;;17.50;56.74;99873.88;1084377;54;19976;-79
2022/09/02 01:30:50;;;;;;;;;;;;;;;17.41;57.31;99889.41;1084162;54;19947;-79
2022/09/02 01:31:52;;;;;;;;;;;;;;;17.28;56.94;99882.03;1084379;54;20512;-79
2022/09/02 01:32:56;;;;;;;;;;;;;;;17.27;56.87;99880.34;1084157;54;19946;-79
2022/09/02 01:33:58;;;;;;;;;;;;;;;17.21;57.14;99881.09;1084404;54;20050;-79
2022/09/02 01:35:02;;;;;;;;;;;;;;;17.18;57.47;99878.81;1084371;54;19947;-79
2022/09/02 01:36:03;;;;;;;;;;;;;;;17.19;57.12;99883.19;1084315;54;19947;-79
2022/09/02 01:37:07;;;;;;;;;;;;;;;17.16;57.37;99875.44;1084106;54;19946;-78
2022/09/02 01:38:11;;;;;;;;;;;;;;;17.14;57.42;99883.72;1084209;54;19947;-79
2022/09/02 01:39:15;;;;;;;;;;;;;;;17.10;57.39;99877.06;1084384;54;19946;-80
2022/09/02 01:40:16;;;;;;;;;;;;;;;17.10;57.69;99881.59;1084708;39;20431;-80
2022/09/02 01:41:20;;;;;;;;;;;;;;;17.14;57.25;99874.78;1084137;54;19954;-79
2022/09/02 01:42:21;;;;;;;;;;;;;;;17.15;57.52;99871.91;1084310;54;19950;-79
2022/09/02 01:43:26;;;;;;;;;;;;;;;17.10;57.58;99870.78;1084305;54;19949;-79
2022/09/02 01:44:28;;;;;;;;;;;;;;;17.08;57.45;99872.88;1084396;39;20384;-79
2022/09/02 01:45:31;;;;;;;;;;;;;;;17.02;57.39;99876.31;1084122;54;19947;-78
2022/09/02 01:46:33;;;;;;;;;;;;;;;17.02;57.65;99873.63;1084529;39;20348;-80
2022/09/02 01:47:37;;;;;;;;;;;;;;;16.99;57.65;99870.31;1083953;54;19982;-78
2022/09/02 01:48:39;;;;;;;;;;;;;;;17.06;57.58;99874.94;1084087;54;19981;-80
2022/09/02 01:49:43;;;;;;;;;;;;;;;17.07;57.58;99876.59;1083959;54;19969;-78
2022/09/02 01:50:45;;;;;;;;;;;;;;;17.04;57.71;99871.56;1084066;54;19969;-80
2022/09/02 01:51:49;;;;;;;;;;;;;;;17.04;57.73;99876.97;1083957;54;19946;-80
2022/09/02 01:52:50;;;;;;;;;;;;;;;17.06;57.31;99874.94;1084210;54;19958;-79
2022/09/02 01:53:56;;;;;;;;;;;;;;;17.08;57.44;99864.78;1083784;54;19961;-79
2022/09/02 01:54:58;;;;;;;;;;;;;;;17.11;57.57;99873.31;1084402;39;20348;-79
2022/09/02 01:56:01;;;;;;;;;;;;;;;17.16;57.29;99872.75;1084371;54;19969;-79
2022/09/02 01:57:03;;;;;;;;;;;;;;;17.15;57.61;99874.59;1084116;54;19946;-80
2022/09/02 01:58:07;;;;;;;;;;;;;;;17.17;57.58;99874.44;1084329;54;20453;-79
2022/09/02 01:59:10;;;;;;;;;;;;;;;17.20;57.32;99871.31;1084499;54;19968;-79
2022/09/02 02:00:15;;;;;;;;;;;;;;;17.22;57.20;99874.66;1084354;54;19969;-79
2022/09/02 02:01:16;;;;;;;;;;;;;;;17.17;57.87;99874.44;1084327;47;19973;-78
2022/09/02 02:02:20;;;;;;;;;;;;;;;17.10;57.81;99876.19;1084456;54;19958;-78
2022/09/02 02:03:21;;;;;;;;;;;;;;;17.10;57.59;99878.91;1084417;54;19973;-79
2022/09/02 02:04:26;;;;;;;;;;;;;;;17.10;57.41;99882.44;1084496;54;19962;-79
2022/09/02 02:05:28;;;;;;;;;;;;;;;17.04;57.52;99877.81;1083953;54;19950;-80
2022/09/02 02:06:31;;;;;;;;;;;;;;;16.97;58.01;99874.19;1084645;54;19973;-80
2022/09/02 02:07:33;;;;;;;;;;;;;;;16.91;58.26;99873.06;1084964;39;20249;-79
2022/09/02 02:08:37;;;;;;;;;;;;;;;16.88;58.08;99875.31;1084451;54;20433;-79
2022/09/02 02:09:41;;;;;;;;;;;;;;;16.86;58.28;99878.22;1084432;54;19950;-80
2022/09/02 02:10:46;;;;;;;;;;;;;;;16.88;58.18;99886.97;1084062;54;19966;-80
2022/09/02 02:11:47;;;;;;;;;;;;;;;16.89;57.74;99880.53;1083808;54;19969;-79
2022/09/02 02:12:51;;;;;;;;;;;;;;;16.93;57.99;99876.44;1084079;54;19958;-78
2022/09/02 02:13:52;;;;;;;;;;;;;;;16.92;58.01;99874.72;1083821;54;19954;-81
2022/09/02 02:14:56;;;;;;;;;;;;;;;16.87;58.33;99876.31;1083817;54;19973;-80
2022/09/02 02:15:58;;;;;;;;;;;;;;;16.86;58.13;99880.09;1083943;54;19980;-80
2022/09/02 02:17:02;;;;;;;;;;;;;;;16.82;58.30;99871.50;1084127;54;19954;-79
2022/09/02 02:18:03;;;;;;;;;;;;;;;16.79;58.30;99874.59;1084132;54;19958;-79
2022/09/02 02:19:07;;;;;;;;;;;;;;;16.81;58.28;99867.97;1084447;54;20448;-80
2022/09/02 02:20:10;;;;;;;;;;;;;;;16.84;58.21;99877.56;1084484;54;19938;-80
2022/09/02 02:21:13;;;;;;;;;;;;;;;16.86;58.16;99880.91;1084489;54;19946;-80
2022/09/02 02:22:16;;;;;;;;;;;;;;;16.79;58.51;99885.41;1085967;39;20337;-79
2022/09/02 02:23:20;;;;;;;;;;;;;;;16.68;58.83;99884.84;1084160;54;19957;-79
2022/09/02 02:24:21;;;;;;;;;;;;;;;16.67;58.56;99877.78;1083410;39;20084;-80
2022/09/02 02:25:27;;;;;;;;;;;;;;;16.62;58.95;99888.31;1082841;54;19957;-78
2022/09/02 02:26:29;;;;;;;;;;;;;;;16.59;59.19;99874.34;1082888;54;19939;-78
2022/09/02 02:27:33;;;;;;;;;;;;;;;16.63;58.73;99884.56;1083371;54;20026;-79
2022/09/02 02:28:35;;;;;;;;;;;;;;;16.67;58.90;99890.44;1086288;54;19926;-79
2022/09/02 02:29:39;;;;;;;;;;;;;;;16.69;58.65;99886.53;1086723;54;19957;-79
2022/09/02 02:30:40;;;;;;;;;;;;;;;16.69;58.74;99889.22;1086623;54;19946;-79
2022/09/02 02:31:44;;;;;;;;;;;;;;;16.63;58.87;99887.25;1086805;54;19947;-78
2022/09/02 02:32:46;;;;;;;;;;;;;;;16.60;59.13;99884.09;1086872;54;19973;-78
2022/09/02 02:33:49;;;;;;;;;;;;;;;16.55;59.31;99883.84;1087332;46;19958;-80
2022/09/02 02:34:51;;;;;;;;;;;;;;;16.56;59.04;99882.84;1087028;54;19969;-79
2022/09/02 02:35:54;;;;;;;;;;;;;;;16.48;59.40;99881.06;1087012;54;19951;-79
2022/09/02 02:36:56;;;;;;;;;;;;;;;16.49;59.46;99882.75;1086930;54;19994;-80
2022/09/02 02:37:59;;;;;;;;;;;;;;;16.49;59.62;99882.75;1087026;54;19950;-79
2022/09/02 02:39:00;;;;;;;;;;;;;;;16.55;59.07;99879.28;1087001;54;19951;-79
2022/09/02 02:40:05;;;;;;;;;;;;;;;16.59;58.84;99885.13;1086906;54;19950;-79
2022/09/02 02:41:11;;;;;;;;;;;;;;;16.55;59.15;99879.28;1086270;54;19962;-78
2022/09/02 02:42:12;;;;;;;;;;;;;;;16.57;59.25;99876.41;1086130;46;19946;-79
2022/09/02 02:43:16;;;;;;;;;;;;;;;16.57;59.08;99877.22;1085919;46;19961;-79
2022/09/02 02:44:30;;;;;;;;;;;;;;;16.60;59.21;99882.25;1084884;54;19950;-78
2022/09/02 02:45:34;;;;;;;;;;;;;;;16.55;59.61;99881.97;1084188;54;19950;-80
2022/09/02 02:46:35;;;;;;;;;;;;;;;16.52;59.58;99880.50;1083190;54;19970;-78
2022/09/02 02:47:40;;;;;;;;;;;;;;;16.54;59.40;99880.28;1083443;39;20408;-79
2022/09/02 02:48:41;;;;;;;;;;;;;;;16.55;59.77;99873.06;1083671;54;19978;-79
2022/09/02 02:49:45;;;;;;;;;;;;;;;16.54;60.00;99877.59;1085506;54;19974;-78
2022/09/02 02:50:46;;;;;;;;;;;;;;;16.56;60.06;99880.13;1085855;47;20674;-78
2022/09/02 02:51:50;;;;;;;;;;;;;;;16.55;59.68;99873.88;1085650;54;20018;-78
2022/09/02 02:52:53;;;;;;;;;;;;;;;16.57;59.61;99871.84;1085294;54;19950;-79
2022/09/02 02:53:57;;;;;;;;;;;;;;;16.59;59.86;99879.72;1084987;54;19946;-78
2022/09/02 02:54:58;;;;;;;;;;;;;;;16.58;59.75;99878.09;1085375;54;19946;-79
2022/09/02 02:56:02;;;;;;;;;;;;;;;16.58;60.06;99867.28;1087046;39;20442;-78
2022/09/02 02:57:06;;;;;;;;;;;;;;;16.57;60.29;99869.13;1085830;47;19957;-78
2022/09/02 02:58:10;;;;;;;;;;;;;;;16.56;59.90;99874.72;1085070;47;19954;-79
2022/09/02 02:59:11;;;;;;;;;;;;;;;16.56;59.98;99870.16;1085574;54;19953;-79
2022/09/02 03:00:17;;;;;;;;;;;;;;;16.49;60.12;99869.25;1085891;54;19957;-79
2022/09/02 03:01:18;;;;;;;;;;;;;;;16.50;59.57;99871.75;1085014;54;19955;-79
2022/09/02 03:02:22;;;;;;;;;;;;;;;16.51;59.98;99878.00;1085548;54;19947;-79
2022/09/02 03:03:23;;;;;;;;;;;;;;;16.54;59.58;99872.19;1085505;54;19962;-78
2022/09/02 03:04:27;;;;;;;;;;;;;;;16.52;59.95;99875.09;1085876;39;20380;-78
2022/09/02 03:05:28;;;;;;;;;;;;;;;16.52;59.72;99875.09;1086501;39;20356;-79
2022/09/02 03:06:32;;;;;;;;;;;;;;;16.54;59.79;99877.59;1086507;39;20421;-78
2022/09/02 03:07:33;;;;;;;;;;;;;;;16.52;59.87;99869.72;1085416;54;19947;-79
2022/09/02 03:08:37;;;;;;;;;;;;;;;16.51;59.55;99876.13;1085801;54;19973;-79
2022/09/02 03:09:38;;;;;;;;;;;;;;;16.51;59.69;99876.13;1085496;47;19962;-79
2022/09/02 03:10:43;;;;;;;;;;;;;;;16.53;59.76;99876.78;1085487;54;19946;-79
2022/09/02 03:11:44;;;;;;;;;;;;;;;16.52;59.78;99874.28;1085484;54;19954;-79
2022/09/02 03:12:51;;;;;;;;;;;;;;;16.51;59.59;99878.81;1085599;54;20457;-79
2022/09/02 03:13:52;;;;;;;;;;;;;;;16.50;59.71;99870.94;1084585;46;19981;-78
2022/09/02 03:14:56;;;;;;;;;;;;;;;16.41;59.79;99869.34;1084970;47;19958;-79
2022/09/02 03:15:58;;;;;;;;;;;;;;;16.34;59.87;99871.97;1085469;54;19950;-79
2022/09/02 03:17:02;;;;;;;;;;;;;;;16.29;60.07;99875.22;1085639;54;19969;-79
2022/09/02 03:18:03;;;;;;;;;;;;;;;16.21;60.69;99869.91;1085553;39;20661;-79
2022/09/02 03:19:07;;;;;;;;;;;;;;;16.20;60.40;99877.16;1084363;54;20445;-79
2022/09/02 03:20:08;;;;;;;;;;;;;;;16.12;60.86;99873.72;1085488;54;19946;-78
2022/09/02 03:21:12;;;;;;;;;;;;;;;16.10;60.77;99875.75;1085506;54;19970;-78
2022/09/02 03:22:13;;;;;;;;;;;;;;;16.04;61.03;99874.63;1085097;54;19947;-79
2022/09/02 03:23:19;;;;;;;;;;;;;;;16.01;60.94;99877.72;1085140;54;19951;-79
2022/09/02 03:24:21;;;;;;;;;;;;;;;15.94;61.67;99871.38;1084942;54;19951;-78
2022/09/02 03:25:26;;;;;;;;;;;;;;;15.87;62.28;99879.38;1085057;54;19977;-79
2022/09/02 03:26:27;;;;;;;;;;;;;;;15.76;62.57;99877.91;1085594;54;19955;-79
2022/09/02 03:27:33;;;;;;;;;;;;;;;15.73;62.94;99881.81;1084544;47;20429;-78
2022/09/02 03:28:37;;;;;;;;;;;;;;;15.69;63.17;99871.59;1085340;47;19953;-78
2022/09/02 03:29:41;;;;;;;;;;;;;;;15.68;62.95;99876.13;1085072;47;20620;-79
2022/09/02 03:30:43;;;;;;;;;;;;;;;15.67;63.37;99865.53;1084687;54;20041;-79
2022/09/02 03:31:48;;;;;;;;;;;;;;;15.63;63.60;99873.16;1085532;54;20015;-78
2022/09/02 03:32:49;;;;;;;;;;;;;;;15.61;63.70;99869.81;1085858;47;19950;-79
2022/09/02 03:33:53;;;;;;;;;;;;;;;15.63;63.39;99869.63;1085363;54;19947;-78
2022/09/02 03:34:54;;;;;;;;;;;;;;;15.63;63.70;99875.03;1086004;54;19973;-79
2022/09/02 03:35:58;;;;;;;;;;;;;;;15.62;63.74;99868.78;1085465;54;19957;-79
2022/09/02 03:37:02;;;;;;;;;;;;;;;15.61;63.57;99872.50;1085226;54;19973;-79
2022/09/02 03:38:03;;;;;;;;;;;;;;;15.59;63.79;99874.53;1086097;54;19945;-81
2022/09/02 03:39:08;;;;;;;;;;;;;;;15.60;63.80;99868.13;1085683;54;20444;-79
2022/09/02 03:40:11;;;;;;;;;;;;;;;15.60;63.90;99870.81;1085313;54;19951;-79
2022/09/02 03:41:14;;;;;;;;;;;;;;;15.59;63.83;99870.00;1085094;54;20002;-78
2022/09/02 03:42:18;;;;;;;;;;;;;;;15.56;63.86;99864.13;1085645;54;19950;-79
2022/09/02 03:43:19;;;;;;;;;;;;;;;15.55;63.61;99874.06;1085916;39;20380;-79
2022/09/02 03:44:25;;;;;;;;;;;;;;;15.60;63.38;99870.81;1087712;31;20449;-78
2022/09/02 03:45:27;;;;;;;;;;;;;;;15.62;63.52;99874.19;1086493;47;19973;-79
2022/09/02 03:46:31;;;;;;;;;;;;;;;15.60;63.51;99868.13;1086124;47;19953;-79
2022/09/02 03:47:32;;;;;;;;;;;;;;;15.58;63.56;99865.63;1085639;54;19947;-79
2022/09/02 03:48:36;;;;;;;;;;;;;;;15.56;63.61;99869.53;1085794;54;19969;-79
2022/09/02 03:49:37;;;;;;;;;;;;;;;15.55;63.81;99870.53;1086040;54;19943;-78
2022/09/02 03:50:43;;;;;;;;;;;;;;;15.53;63.92;99869.88;1087334;39;20660;-79
2022/09/02 03:51:45;;;;;;;;;;;;;;;15.49;64.23;99874.78;1085725;54;19947;-79
2022/09/02 03:52:50;;;;;;;;;;;;;;;15.52;63.67;99868.19;1086403;54;19989;-79
2022/09/02 03:53:51;;;;;;;;;;;;;;;15.49;63.80;99873.97;1086165;54;19958;-79
2022/09/02 03:54:55;;;;;;;;;;;;;;;15.46;64.16;99868.94;1086328;54;20562;-79
2022/09/02 03:55:57;;;;;;;;;;;;;;;15.49;63.90;99869.41;1086487;54;19961;-80
2022/09/02 03:57:00;;;;;;;;;;;;;;;15.42;64.12;99869.28;1085614;54;20756;-79
2022/09/02 03:58:02;;;;;;;;;;;;;;;15.37;64.21;99877.09;1085384;54;19969;-79
2022/09/02 03:59:06;;;;;;;;;;;;;;;15.43;64.17;99870.97;1085862;54;19939;-79
2022/09/02 04:00:10;;;;;;;;;;;;;;;15.40;64.41;99870.50;1086021;39;20806;-79
2022/09/02 04:01:15;;;;;;;;;;;;;;;15.44;64.07;99875.34;1084964;54;19950;-78
2022/09/02 04:02:17;;;;;;;;;;;;;;;15.48;63.75;99870.41;1085669;54;19969;-79
2022/09/02 04:03:21;;;;;;;;;;;;;;;15.48;64.07;99873.13;1085220;54;20066;-79
2022/09/02 04:04:23;;;;;;;;;;;;;;;15.48;64.17;99867.72;1085546;54;20065;-78
2022/09/02 04:05:27;;;;;;;;;;;;;;;15.50;64.02;99862.16;1085929;54;19950;-78
2022/09/02 04:06:28;;;;;;;;;;;;;;;15.48;63.97;99866.91;1086859;54;19973;-78
2022/09/02 04:07:32;;;;;;;;;;;;;;;15.52;63.68;99868.19;1086304;54;19939;-79
2022/09/02 04:08:33;;;;;;;;;;;;;;;15.53;63.73;99864.50;1085618;54;19958;-78
2022/09/02 04:09:37;;;;;;;;;;;;;;;15.54;63.69;99871.56;1085943;54;19954;-78
2022/09/02 04:10:38;;;;;;;;;;;;;;;15.55;63.27;99865.97;1085321;54;19950;-77
2022/09/02 04:11:43;;;;;;;;;;;;;;;15.56;63.50;99866.81;1085808;54;19946;-78
2022/09/02 04:12:44;;;;;;;;;;;;;;;15.56;63.97;99874.91;1086004;54;19951;-78
2022/09/02 04:13:50;;;;;;;;;;;;;;;15.56;63.96;99866.81;1086287;54;19977;-78
2022/09/02 04:14:51;;;;;;;;;;;;;;;15.52;64.11;99868.19;1086245;54;19954;-78
2022/09/02 04:15:57;;;;;;;;;;;;;;;15.52;64.08;99868.19;1086335;54;19950;-78
2022/09/02 04:16:58;;;;;;;;;;;;;;;15.51;64.10;99867.38;1086221;54;19957;-77
2022/09/02 04:18:02;;;;;;;;;;;;;;;15.50;63.95;99871.09;1085447;54;19961;-78
2022/09/02 04:19:04;;;;;;;;;;;;;;;15.48;64.38;99866.91;1085882;54;19958;-78
2022/09/02 04:20:09;;;;;;;;;;;;;;;15.43;65.22;99865.56;1085547;54;19957;-79
2022/09/02 04:21:11;;;;;;;;;;;;;;;15.27;65.66;99877.31;1087769;39;20622;-78
2022/09/02 04:22:14;;;;;;;;;;;;;;;15.20;66.13;99867.47;1086171;54;19946;-78
2022/09/02 04:23:15;;;;;;;;;;;;;;;15.04;66.36;99873.78;1086549;54;19942;-79
2022/09/02 04:24:19;;;;;;;;;;;;;;;15.02;66.35;99873.94;1087728;39;20245;-78
2022/09/02 04:25:21;;;;;;;;;;;;;;;14.98;66.68;99869.94;1086175;54;19950;-78
2022/09/02 04:26:25;;;;;;;;;;;;;;;14.94;66.47;99865.91;1085424;54;19947;-78
2022/09/02 04:27:26;;;;;;;;;;;;;;;14.88;66.98;99874.72;1085911;54;19946;-78
2022/09/02 04:28:30;;;;;;;;;;;;;;;14.84;66.93;99876.06;1086383;54;19955;-78
2022/09/02 04:29:31;;;;;;;;;;;;;;;14.85;66.72;99867.84;1085983;54;20455;-78
2022/09/02 04:30:35;;;;;;;;;;;;;;;14.80;67.26;99878.28;1086375;54;19950;-79
2022/09/02 04:31:38;;;;;;;;;;;;;;;14.71;67.23;99871.28;1085410;54;20456;-78
2022/09/02 04:32:42;;;;;;;;;;;;;;;14.68;67.50;99871.63;1085561;54;19947;-78
2022/09/02 04:33:43;;;;;;;;;;;;;;;14.66;67.41;99880.72;1086235;54;19951;-78
2022/09/02 04:34:47;;;;;;;;;;;;;;;14.69;67.33;99874.16;1086086;54;19939;-78
2022/09/02 04:35:48;;;;;;;;;;;;;;;14.67;67.50;99881.53;1086071;47;19947;-78
2022/09/02 04:36:52;;;;;;;;;;;;;;;14.72;66.95;99876.50;1086750;54;20082;-78
2022/09/02 04:37:53;;;;;;;;;;;;;;;14.72;66.76;99872.94;1086077;54;19957;-78
2022/09/02 04:38:57;;;;;;;;;;;;;;;14.62;67.40;99873.16;1086848;39;20335;-78
2022/09/02 04:39:58;;;;;;;;;;;;;;;14.61;67.55;99874.16;1084509;54;19951;-78
2022/09/02 04:41:02;;;;;;;;;;;;;;;14.60;67.25;99873.31;1086285;54;19950;-78
2022/09/02 04:42:04;;;;;;;;;;;;;;;14.63;67.34;99870.28;1085850;54;19947;-78
2022/09/02 04:43:08;;;;;;;;;;;;;;;14.66;66.90;99869.06;1085795;54;20031;-78
2022/09/02 04:44:09;;;;;;;;;;;;;;;14.72;66.80;99876.50;1086046;54;19946;-78
2022/09/02 04:45:13;;;;;;;;;;;;;;;14.72;66.87;99872.94;1085561;54;19946;-78
2022/09/02 04:46:15;;;;;;;;;;;;;;;14.75;66.27;99873.44;1086708;54;19946;-78
2022/09/02 04:47:21;;;;;;;;;;;;;;;14.77;66.46;99870.59;1086010;54;19946;-78
2022/09/02 04:48:23;;;;;;;;;;;;;;;14.73;66.46;99875.47;1085874;54;19947;-78
2022/09/02 04:49:30;;;;;;;;;;;;;;;14.74;66.54;99874.44;1086078;54;19965;-78
2022/09/02 04:50:31;;;;;;;;;;;;;;;14.80;66.17;99873.75;1086184;54;19950;-78
2022/09/02 04:51:35;;;;;;;;;;;;;;;14.75;66.26;99865.34;1088208;39;20652;-78
2022/09/02 04:52:37;;;;;;;;;;;;;;;14.79;66.48;99873.91;1086746;54;19947;-78
2022/09/02 04:53:41;;;;;;;;;;;;;;;14.81;66.23;99871.88;1085910;54;19946;-78
2022/09/02 04:54:42;;;;;;;;;;;;;;;14.81;66.05;99875.44;1085900;54;19957;-78
2022/09/02 04:55:45;;;;;;;;;;;;;;;14.85;66.24;99872.38;1085636;54;19946;-78
2022/09/02 04:56:47;;;;;;;;;;;;;;;14.85;66.27;99880.44;1085917;54;19946;-77
2022/09/02 04:57:50;;;;;;;;;;;;;;;14.81;66.31;99872.75;1085951;54;19950;-75
2022/09/02 04:58:52;;;;;;;;;;;;;;;14.78;66.28;99878.47;1086294;54;19946;-78
2022/09/02 04:59:56;;;;;;;;;;;;;;;14.81;66.05;99872.75;1085054;54;19946;-78
2022/09/02 05:00:57;;;;;;;;;;;;;;;14.85;65.82;99877.75;1086452;54;19947;-78
2022/09/02 05:02:01;;;;;;;;;;;;;;;14.85;65.90;99873.22;1085775;54;19946;-78
2022/09/02 05:03:05;;;;;;;;;;;;;;;14.87;65.66;99867.66;1086418;39;20609;-78
2022/09/02 05:04:10;;;;;;;;;;;;;;;14.87;65.85;99879.28;1086609;54;19946;-78
2022/09/02 05:05:11;;;;;;;;;;;;;;;14.78;66.20;99873.09;1086604;54;19977;-77
2022/09/02 05:06:16;;;;;;;;;;;;;;;14.73;66.09;99875.47;1086534;54;19947;-78
2022/09/02 05:07:17;;;;;;;;;;;;;;;14.63;66.38;99880.22;1086652;54;20018;-78
2022/09/02 05:08:21;;;;;;;;;;;;;;;14.56;67.01;99876.50;1086725;54;19957;-77
2022/09/02 05:09:22;;;;;;;;;;;;;;;14.53;66.83;99875.03;1086620;47;20833;-78
2022/09/02 05:10:27;;;;;;;;;;;;;;;14.53;67.04;99875.03;1087023;54;20546;-78
2022/09/02 05:11:30;;;;;;;;;;;;;;;14.46;67.55;99874.06;1087548;39;20362;-78
2022/09/02 05:12:35;;;;;;;;;;;;;;;14.40;67.53;99880.97;1087185;54;19957;-78
2022/09/02 05:13:36;;;;;;;;;;;;;;;14.37;67.60;99878.59;1086870;54;19950;-78
2022/09/02 05:14:40;;;;;;;;;;;;;;;14.35;67.94;99877.97;1088373;39;20241;-78
2022/09/02 05:15:42;;;;;;;;;;;;;;;14.33;67.88;99875.44;1086673;54;19950;-79
2022/09/02 05:16:47;;;;;;;;;;;;;;;14.37;67.87;99869.72;1087370;46;20543;-78
2022/09/02 05:17:48;;;;;;;;;;;;;;;14.44;67.19;99876.94;1086075;54;20006;-78
2022/09/02 05:18:55;;;;;;;;;;;;;;;14.49;66.85;99874.53;1086400;54;19951;-80
2022/09/02 05:19:56;;;;;;;;;;;;;;;14.54;67.10;99873.19;1086344;54;19946;-78
2022/09/02 05:21:00;;;;;;;;;;;;;;;14.59;66.43;99878.88;1086694;54;19950;-78
2022/09/02 05:22:03;;;;;;;;;;;;;;;14.63;66.22;99870.28;1086729;54;19973;-78
2022/09/02 05:23:07;;;;;;;;;;;;;;;14.65;66.59;99880.84;1086704;54;19951;-78
2022/09/02 05:24:08;;;;;;;;;;;;;;;14.62;66.53;99884.72;1086729;54;19947;-78
2022/09/02 05:25:12;;;;;;;;;;;;;;;14.64;66.47;99881.88;1086862;54;19939;-79
2022/09/02 05:26:14;;;;;;;;;;;;;;;14.67;66.22;99881.53;1086403;54;19957;-80
2022/09/02 05:27:19;;;;;;;;;;;;;;;14.71;66.10;99882.88;1086274;54;19957;-78
2022/09/02 05:28:20;;;;;;;;;;;;;;;14.73;66.06;99878.19;1085641;54;20014;-78
2022/09/02 05:29:24;;;;;;;;;;;;;;;14.71;66.29;99877.50;1086332;54;19950;-78